Time;durP1;ratioP1;P1;durP2;ratioP2;P2;SDS_P1;SDS_P2;PMS_P1;PMS_P2;Temp;Humidity;BMP_temperature;BMP_pressure;BME280_temperature;BME280_humidity;BME280_pressure;Samples;Min_cycle;Max_cycle;Signal;HPM_P1;HPM_P2
2021/12/10 00:01:23;;;;;;;60.75;25.55;;;5.20;99.90;;;;;;5088884;28;20043;-70
2021/12/10 00:03:55;;;;;;;59.78;24.02;;;5.40;99.90;;;;;;5088093;28;20048;-69
2021/12/10 00:06:33;;;;;;;63.55;25.33;;;5.30;99.90;;;;;;5089501;28;20036;-69
2021/12/10 00:09:09;;;;;;;68.78;25.55;;;5.20;99.90;;;;;;5089603;28;20044;-70
2021/12/10 00:11:51;;;;;;;64.13;25.30;;;5.20;99.90;;;;;;5087418;28;20447;-70
2021/12/10 00:14:18;;;;;;;65.32;25.00;;;5.30;99.90;;;;;;5089106;28;20055;-69
2021/12/10 00:16:45;;;;;;;58.88;24.50;;;5.20;99.90;;;;;;5089669;28;20496;-69
2021/12/10 00:21:42;;;;;;;62.47;24.35;;;5.20;99.90;;;;;;5085389;28;20087;-70
2021/12/10 00:24:10;;;;;;;64.43;26.13;;;6.00;99.90;;;;;;5067781;28;20040;-70
2021/12/10 00:26:36;;;;;;;64.65;24.15;;;5.60;99.90;;;;;;5089178;28;20051;-72
2021/12/10 00:29:05;;;;;;;67.10;24.95;;;5.40;99.90;;;;;;5090097;28;20503;-70
2021/12/10 00:31:46;;;;;;;68.53;26.30;;;5.10;99.90;;;;;;5092781;28;20055;-70
2021/12/10 00:34:16;;;;;;;70.25;26.40;;;5.10;99.90;;;;;;5090961;28;20393;-70
2021/12/10 00:36:43;;;;;;;65.95;25.55;;;5.30;99.90;;;;;;5092497;28;20098;-70
2021/12/10 00:39:31;;;;;;;69.30;26.35;;;5.30;99.90;;;;;;5075115;28;20156;-70
2021/12/10 00:41:59;;;;;;;67.82;25.48;;;5.40;99.90;;;;;;5075026;28;20055;-70
2021/12/10 00:44:24;;;;;;;66.63;25.35;;;5.10;99.90;;;;;;5075389;28;20089;-70
2021/12/10 00:46:51;;;;;;;63.00;25.17;;;5.60;99.90;;;;;;5091662;28;20138;-70
2021/12/10 00:49:18;;;;;;;65.80;26.23;;;5.00;99.90;;;;;;5075017;28;20441;-71
2021/12/10 00:51:44;;;;;;;67.25;27.05;;;5.10;99.90;;;;;;5090190;28;20052;-70
2021/12/10 00:54:12;;;;;;;62.47;25.55;;;5.10;99.90;;;;;;5091477;28;20052;-70
2021/12/10 00:56:41;;;;;;;68.35;26.73;;;5.10;99.90;;;;;;5092232;28;20044;-70
2021/12/10 00:59:08;;;;;;;68.35;25.83;;;5.10;99.90;;;;;;5091858;28;20124;-70
2021/12/10 01:01:34;;;;;;;62.63;25.73;;;5.40;99.90;;;;;;5092184;28;20177;-71
2021/12/10 01:04:08;;;;;;;69.03;26.15;;;5.20;99.90;;;;;;5075074;28;20059;-70
2021/12/10 01:06:35;;;;;;;66.68;26.73;;;5.10;99.90;;;;;;5092194;28;20048;-71
2021/12/10 01:09:11;;;;;;;62.55;25.13;;;5.10;99.90;;;;;;5091947;28;20064;-71
2021/12/10 01:11:50;;;;;;;58.95;24.35;;;5.10;99.90;;;;;;5091291;28;20052;-71
2021/12/10 01:14:25;;;;;;;61.80;25.17;;;5.20;99.90;;;;;;5088332;28;20051;-71
2021/12/10 01:25:25;;;;;;;67.32;25.02;;;5.20;99.90;;;;;;5088817;28;20189;-69
2021/12/10 01:27:51;;;;;;;66.55;26.10;;;5.20;99.90;;;;;;5067238;28;20515;-70
2021/12/10 01:30:26;;;;;;;65.10;24.05;;;5.20;99.90;;;;;;5074005;28;20036;-70
2021/12/10 01:33:00;;;;;;;65.82;24.65;;;5.20;99.90;;;;;;5091215;28;20125;-71
2021/12/10 01:35:30;;;;;;;64.43;25.98;;;5.70;99.90;;;;;;5087903;28;20092;-70
2021/12/10 01:37:57;;;;;;;60.35;25.35;;;5.20;99.90;;;;;;5073981;28;20098;-70
2021/12/10 01:40:25;;;;;;;70.78;25.45;;;5.30;99.90;;;;;;5072987;28;20437;-69
2021/12/10 01:42:59;;;;;;;65.20;25.52;;;5.30;99.90;;;;;;5089874;28;20052;-70
2021/12/10 01:45:30;;;;;;;63.38;26.23;;;5.30;99.90;;;;;;5074661;28;20036;-69
2021/12/10 01:48:09;;;;;;;62.60;25.38;;;5.20;99.90;;;;;;5090893;28;20055;-70
2021/12/10 01:50:36;;;;;;;61.88;23.05;;;5.30;99.90;;;;;;5090984;28;20420;-69
2021/12/10 01:53:07;;;;;;;56.67;24.05;;;5.30;99.90;;;;;;5089831;28;20477;-70
2021/12/10 01:55:39;;;;;;;63.45;24.08;;;5.50;99.90;;;;;;5091292;28;20036;-70
2021/12/10 01:58:07;;;;;;;56.30;23.30;;;5.30;99.90;;;;;;5091158;28;20036;-71
2021/12/10 02:00:38;;;;;;;56.47;23.27;;;5.70;99.90;;;;;;5090968;28;20047;-71
2021/12/10 02:03:04;;;;;;;57.50;23.63;;;5.30;99.90;;;;;;5090165;28;20504;-71
2021/12/10 02:05:30;;;;;;;53.08;22.77;;;5.30;99.90;;;;;;5074238;28;20044;-70
2021/12/10 02:07:58;;;;;;;53.28;22.83;;;5.30;99.90;;;;;;5073359;28;20048;-70
2021/12/10 02:10:26;;;;;;;61.63;22.67;;;5.30;99.90;;;;;;5073732;28;20094;-71
2021/12/10 02:12:53;;;;;;;53.67;23.38;;;5.50;99.90;;;;;;5089865;28;20083;-70
2021/12/10 02:15:21;;;;;;;56.22;23.92;;;5.30;99.90;;;;;;5091169;28;20127;-70
2021/12/10 02:17:50;;;;;;;58.33;23.83;;;5.30;99.90;;;;;;5073321;28;20051;-70
2021/12/10 02:20:37;;;;;;;58.05;24.27;;;5.30;99.90;;;;;;5104549;28;20036;-70
2021/12/10 02:23:05;;;;;;;66.50;24.63;;;5.20;99.90;;;;;;5070581;28;20054;-70
2021/12/10 02:25:36;;;;;;;67.28;25.83;;;5.60;99.90;;;;;;5074096;28;20109;-69
2021/12/10 02:28:03;;;;;;;59.78;25.52;;;5.20;99.90;;;;;;5072353;28;20052;-71
2021/12/10 02:30:30;;;;;;;61.17;23.70;;;6.00;99.90;;;;;;5089734;28;20040;-71
2021/12/10 02:32:56;;;;;;;60.42;23.20;;;5.20;99.90;;;;;;5070669;28;20509;-70
2021/12/10 02:35:22;;;;;;;60.28;25.13;;;5.20;99.90;;;;;;5104554;28;20139;-71
2021/12/10 02:37:48;;;;;;;57.67;24.23;;;5.70;99.90;;;;;;5073750;28;20072;-70
2021/12/10 02:40:17;;;;;;;60.22;24.67;;;5.20;99.90;;;;;;5073035;28;20067;-70
2021/12/10 02:42:44;;;;;;;53.45;22.83;;;5.30;99.90;;;;;;5090064;28;20130;-70
2021/12/10 02:45:12;;;;;;;54.17;23.25;;;5.20;99.90;;;;;;5056177;28;20043;-70
2021/12/10 02:47:38;;;;;;;53.70;22.48;;;5.40;99.90;;;;;;5088962;28;20106;-69
2021/12/10 02:50:08;;;;;;;56.33;23.13;;;5.60;99.90;;;;;;5073224;28;20101;-70
2021/12/10 02:52:33;;;;;;;55.17;22.17;;;5.10;99.90;;;;;;5072856;28;20108;-71
2021/12/10 02:54:59;;;;;;;48.67;21.63;;;5.30;99.90;;;;;;5089399;28;20044;-70
2021/12/10 02:57:27;;;;;;;52.72;21.65;;;5.20;99.90;;;;;;5072375;28;20377;-71
2021/12/10 02:59:53;;;;;;;45.20;20.33;;;5.10;99.90;;;;;;5090393;28;20117;-70
2021/12/10 03:02:22;;;;;;;51.70;20.80;;;5.20;99.90;;;;;;5089324;28;20044;-70
2021/12/10 03:04:49;;;;;;;50.75;21.13;;;5.10;99.90;;;;;;5085718;28;20047;-70
2021/12/10 03:07:16;;;;;;;48.13;21.60;;;5.20;99.90;;;;;;5073276;28;20052;-70
2021/12/10 03:09:45;;;;;;;39.60;18.90;;;5.20;99.90;;;;;;5107041;28;20040;-69
2021/12/10 03:12:13;;;;;;;49.15;21.38;;;5.40;99.90;;;;;;5089775;28;20048;-70
2021/12/10 03:14:42;;;;;;;47.45;19.90;;;5.20;99.90;;;;;;5086643;28;20044;-70
2021/12/10 03:17:12;;;;;;;46.92;20.33;;;5.20;99.90;;;;;;5088830;28;20074;-70
2021/12/10 03:19:39;;;;;;;42.13;18.88;;;5.20;99.90;;;;;;5089645;28;20108;-72
2021/12/10 03:22:07;;;;;;;44.67;19.40;;;5.10;99.90;;;;;;5072611;28;20139;-69
2021/12/10 03:24:34;;;;;;;41.45;18.77;;;5.50;99.90;;;;;;5088923;28;20456;-70
2021/12/10 03:27:03;;;;;;;31.90;16.20;;;5.20;99.90;;;;;;5070329;28;20044;-69
2021/12/10 03:29:31;;;;;;;39.75;14.82;;;5.20;99.90;;;;;;5072666;28;20054;-70
2021/12/10 03:31:59;;;;;;;33.10;14.88;;;5.20;99.90;;;;;;5089800;28;20063;-70
2021/12/10 03:34:25;;;;;;;32.83;14.27;;;5.20;99.90;;;;;;5088912;28;20066;-69
2021/12/10 03:36:52;;;;;;;31.13;14.10;;;5.30;99.90;;;;;;5089683;28;20475;-70
2021/12/10 03:39:23;;;;;;;34.92;16.08;;;5.20;99.90;;;;;;5119066;28;20141;-69
2021/12/10 03:41:50;;;;;;;36.08;14.75;;;5.20;99.90;;;;;;5088714;28;20044;-69
2021/12/10 03:44:16;;;;;;;34.85;15.93;;;5.20;99.90;;;;;;5072292;28;20062;-69
2021/12/10 03:46:43;;;;;;;37.83;15.52;;;5.20;99.90;;;;;;5088322;28;20040;-69
2021/12/10 03:49:09;;;;;;;40.30;15.90;;;5.20;99.90;;;;;;5090697;28;20062;-70
2021/12/10 03:51:37;;;;;;;37.42;14.95;;;4.60;99.90;;;;;;5084315;28;20048;-69
2021/12/10 03:54:06;;;;;;;36.42;15.38;;;5.10;99.90;;;;;;5089580;28;20040;-69
2021/12/10 03:56:34;;;;;;;36.35;15.20;;;5.30;99.90;;;;;;5073224;28;20500;-70
2021/12/10 03:59:09;;;;;;;37.50;15.80;;;5.10;99.90;;;;;;5089399;28;20079;-69
2021/12/10 04:01:38;;;;;;;37.75;15.00;;;5.70;99.90;;;;;;5090074;28;20051;-69
2021/12/10 04:04:09;;;;;;;32.78;15.40;;;5.10;99.90;;;;;;5091720;28;20054;-70
2021/12/10 04:06:35;;;;;;;34.55;15.00;;;5.10;99.90;;;;;;5093969;28;20126;-70
2021/12/10 04:09:03;;;;;;;37.17;17.08;;;5.10;99.90;;;;;;5093557;28;20083;-69
2021/12/10 04:11:31;;;;;;;38.85;16.75;;;5.10;99.90;;;;;;5092432;28;20056;-69
2021/12/10 04:13:57;;;;;;;38.75;16.23;;;5.50;99.90;;;;;;5093307;28;20054;-70
2021/12/10 04:16:25;;;;;;;40.47;16.98;;;5.10;99.90;;;;;;5076562;28;20067;-70
2021/12/10 04:18:52;;;;;;;36.33;16.85;;;5.10;99.90;;;;;;5076919;28;20463;-70
2021/12/10 04:21:19;;;;;;;40.97;16.85;;;5.10;99.90;;;;;;5093180;28;20046;-69
2021/12/10 04:23:46;;;;;;;35.05;17.05;;;5.70;99.90;;;;;;5093015;28;20515;-70
2021/12/10 04:26:15;;;;;;;38.92;18.70;;;5.50;99.90;;;;;;5093320;28;20050;-70
2021/12/10 04:28:42;;;;;;;45.13;18.73;;;5.10;99.90;;;;;;5076934;28;20451;-70
2021/12/10 04:31:08;;;;;;;39.22;18.95;;;5.10;99.90;;;;;;5092805;28;20040;-70
2021/12/10 04:33:34;;;;;;;41.83;19.33;;;5.10;99.90;;;;;;5093047;28;20040;-69
2021/12/10 04:36:01;;;;;;;40.63;19.38;;;5.10;99.90;;;;;;5094560;28;20459;-70
2021/12/10 04:38:30;;;;;;;43.90;18.27;;;5.10;99.90;;;;;;5093314;28;20515;-70
2021/12/10 04:41:00;;;;;;;39.47;18.25;;;5.10;99.90;;;;;;5058036;28;20055;-71
2021/12/10 04:43:26;;;;;;;45.58;19.63;;;5.10;99.90;;;;;;5093095;28;20456;-72
2021/12/10 04:45:54;;;;;;;46.20;20.13;;;5.10;99.90;;;;;;5093008;28;20124;-70
2021/12/10 04:48:20;;;;;;;46.80;19.63;;;5.20;99.90;;;;;;5092029;28;20093;-70
2021/12/10 04:50:47;;;;;;;52.88;21.83;;;5.10;99.90;;;;;;5092102;28;20126;-70
2021/12/10 04:53:13;;;;;;;44.25;20.08;;;5.20;99.90;;;;;;5092309;28;20060;-70
2021/12/10 04:55:40;;;;;;;42.88;18.80;;;5.20;99.90;;;;;;5092115;28;20076;-72
2021/12/10 04:58:07;;;;;;;46.97;20.63;;;5.20;99.90;;;;;;5089105;28;20097;-70
2021/12/10 05:00:44;;;;;;;50.33;20.80;;;5.50;99.90;;;;;;5092449;28;20502;-71
2021/12/10 05:03:11;;;;;;;46.55;19.98;;;5.10;99.90;;;;;;5089507;28;20040;-70
2021/12/10 05:05:39;;;;;;;52.08;20.10;;;5.20;99.90;;;;;;5090952;28;20043;-70
2021/12/10 05:08:06;;;;;;;44.97;20.58;;;5.40;99.90;;;;;;5067531;28;20335;-70
2021/12/10 05:10:33;;;;;;;41.67;20.40;;;5.10;99.90;;;;;;5096068;28;20070;-71
2021/12/10 05:12:59;;;;;;;49.17;22.08;;;5.00;99.90;;;;;;5091962;28;20040;-70
2021/12/10 05:15:27;;;;;;;51.92;23.25;;;5.20;99.90;;;;;;5092774;28;20476;-71
2021/12/10 05:17:54;;;;;;;56.28;22.73;;;5.00;99.90;;;;;;5074725;28;20040;-71
2021/12/10 05:20:31;;;;;;;53.58;23.83;;;5.10;99.90;;;;;;5092695;28;20496;-71
2021/12/10 05:22:56;;;;;;;54.72;24.50;;;4.90;99.90;;;;;;5075240;28;20040;-70
2021/12/10 05:25:26;;;;;;;52.72;23.15;;;4.90;99.90;;;;;;5075835;28;20052;-70
2021/12/10 05:27:52;;;;;;;54.58;24.08;;;4.90;99.90;;;;;;5091872;28;20171;-69
2021/12/10 05:30:24;;;;;;;49.47;23.65;;;4.80;99.90;;;;;;5092172;28;20140;-69
2021/12/10 05:32:50;;;;;;;;;;;4.80;99.90;;;;;;5117060;27;20047;-70
2021/12/10 05:35:16;;;;;;;47.15;21.52;;;5.10;99.90;;;;;;5106466;28;19945;-71
2021/12/10 05:37:42;;;;;;;48.47;22.00;;;4.70;99.90;;;;;;5091755;28;20044;-71
2021/12/10 05:40:12;;;;;;;51.15;21.27;;;4.60;99.90;;;;;;5092218;28;20059;-70
2021/12/10 05:42:39;;;;;;;46.50;21.85;;;4.50;99.90;;;;;;5091528;28;20048;-69
2021/12/10 05:45:06;;;;;;;46.53;21.92;;;4.40;99.90;;;;;;5091983;28;20063;-70
2021/12/10 05:47:32;;;;;;;45.28;21.15;;;4.40;99.90;;;;;;5092095;28;20044;-71
2021/12/10 05:49:58;;;;;;;45.25;22.08;;;4.00;99.90;;;;;;5091425;28;20055;-69
2021/12/10 05:52:24;;;;;;;50.25;23.45;;;4.30;99.90;;;;;;5090936;28;20050;-69
2021/12/10 05:54:52;;;;;;;48.60;22.42;;;4.20;99.90;;;;;;5092201;28;20048;-70
2021/12/10 05:57:18;;;;;;;49.45;22.95;;;4.20;99.90;;;;;;5091781;28;20044;-69
2021/12/10 05:59:45;;;;;;;48.72;21.20;;;4.40;99.90;;;;;;5073306;28;20044;-70
2021/12/10 06:02:11;;;;;;;46.50;21.25;;;4.30;99.90;;;;;;5090647;28;20048;-69
2021/12/10 06:04:36;;;;;;;46.80;22.23;;;4.30;99.90;;;;;;5073831;28;20109;-69
2021/12/10 06:07:05;;;;;;;43.67;22.17;;;4.30;99.90;;;;;;5090952;28;20070;-70
2021/12/10 06:09:31;;;;;;;43.70;20.13;;;4.40;99.90;;;;;;5074127;28;20495;-69
2021/12/10 06:11:57;;;;;;;42.85;20.48;;;4.40;99.90;;;;;;5090405;28;20083;-71
2021/12/10 06:14:23;;;;;;;41.65;19.88;;;4.40;99.90;;;;;;5090521;28;20047;-70
2021/12/10 06:16:52;;;;;;;43.70;20.25;;;4.50;99.90;;;;;;5091033;28;20047;-70
2021/12/10 06:19:18;;;;;;;37.22;18.70;;;4.80;99.90;;;;;;5090410;28;20052;-71
2021/12/10 06:21:44;;;;;;;37.35;18.90;;;4.20;99.90;;;;;;5073397;28;20070;-71
2021/12/10 06:24:10;;;;;;;39.08;18.40;;;4.10;99.90;;;;;;5090382;28;20043;-71
2021/12/10 06:26:36;;;;;;;37.10;17.60;;;4.00;99.90;;;;;;5089684;28;20040;-72
2021/12/10 06:29:04;;;;;;;36.45;17.83;;;4.00;99.90;;;;;;5090685;28;20039;-71
2021/12/10 06:31:30;;;;;;;34.03;17.70;;;3.80;99.90;;;;;;5090238;28;20051;-71
2021/12/10 06:33:56;;;;;;;36.10;16.92;;;3.80;99.90;;;;;;5090303;28;20485;-71
2021/12/10 06:36:23;;;;;;;36.60;16.65;;;3.70;99.90;;;;;;5090641;28;20511;-71
2021/12/10 06:38:49;;;;;;;30.15;15.10;;;3.60;99.90;;;;;;5090751;28;20044;-72
2021/12/10 06:41:16;;;;;;;29.95;14.82;;;3.60;99.90;;;;;;5089428;28;20513;-71
2021/12/10 06:43:43;;;;;;;32.22;14.75;;;4.10;99.90;;;;;;5090282;28;20033;-70
2021/12/10 06:46:09;;;;;;;34.70;15.23;;;3.50;99.90;;;;;;5090233;28;20044;-71
2021/12/10 06:48:36;;;;;;;31.40;15.48;;;3.40;99.90;;;;;;5042895;28;20048;-71
2021/12/10 06:51:09;;;;;;;33.17;14.82;;;3.40;99.90;;;;;;5106593;28;20416;-70
2021/12/10 06:53:35;;;;;;;31.02;14.50;;;3.40;99.90;;;;;;5070953;28;20133;-71
2021/12/10 06:56:03;;;;;;;30.55;14.70;;;3.30;99.90;;;;;;5090086;28;20485;-70
2021/12/10 06:58:32;;;;;;;29.27;14.52;;;3.20;99.90;;;;;;5090596;28;20071;-71
2021/12/10 07:01:09;;;;;;;31.83;15.38;;;3.20;99.90;;;;;;5089796;28;20056;-71
2021/12/10 07:03:35;;;;;;;32.28;14.57;;;3.20;99.90;;;;;;5086167;28;20055;-70
2021/12/10 07:06:02;;;;;;;30.27;14.68;;;3.40;99.90;;;;;;5089987;28;20044;-71
2021/12/10 07:08:30;;;;;;;32.10;13.60;;;3.10;99.90;;;;;;5090324;28;20137;-71
2021/12/10 07:10:57;;;;;;;31.98;14.85;;;3.10;99.90;;;;;;5073571;28;20051;-71
2021/12/10 07:13:23;;;;;;;33.33;14.77;;;3.00;99.90;;;;;;5090015;28;20394;-71
2021/12/10 07:15:50;;;;;;;31.17;14.00;;;3.20;99.90;;;;;;5057109;28;20400;-71
2021/12/10 07:18:19;;;;;;;33.72;13.57;;;3.10;99.90;;;;;;5090504;28;20047;-72
2021/12/10 07:20:46;;;;;;;30.60;14.43;;;3.00;99.90;;;;;;5073425;28;20072;-71
2021/12/10 07:23:12;;;;;;;28.65;13.18;;;2.90;99.90;;;;;;5072464;28;20508;-72
2021/12/10 07:25:39;;;;;;;26.77;12.95;;;2.90;99.90;;;;;;5090487;28;20296;-70
2021/12/10 07:28:06;;;;;;;29.35;12.38;;;2.90;99.90;;;;;;5090096;28;20060;-71
2021/12/10 07:30:33;;;;;;;28.98;13.18;;;2.90;99.90;;;;;;5057814;28;20086;-71
2021/12/10 07:32:59;;;;;;;30.98;13.73;;;3.00;99.90;;;;;;5089945;28;20044;-70
2021/12/10 07:35:25;;;;;;;26.75;12.32;;;2.80;99.90;;;;;;5073919;28;20044;-71
2021/12/10 07:37:51;;;;;;;31.67;13.43;;;3.20;99.90;;;;;;5090821;28;20055;-70
2021/12/10 07:40:23;;;;;;;27.27;12.30;;;2.80;99.90;;;;;;5094865;28;20063;-71
2021/12/10 07:42:49;;;;;;;29.55;11.85;;;2.80;99.90;;;;;;5093815;28;20492;-70
2021/12/10 07:45:15;;;;;;;29.75;12.77;;;2.90;99.90;;;;;;5094784;28;20127;-70
2021/12/10 07:47:41;;;;;;;30.33;12.68;;;2.80;99.90;;;;;;5076223;28;20146;-71
2021/12/10 07:50:15;;;;;;;23.50;11.25;;;2.90;99.90;;;;;;5094501;28;20052;-71
2021/12/10 07:52:41;;;;;;;22.98;11.07;;;2.80;99.90;;;;;;5093426;28;20517;-71
2021/12/10 07:55:13;;;;;;;27.85;11.15;;;2.80;99.90;;;;;;5128705;27;20052;-71
2021/12/10 07:57:40;;;;;;;27.95;12.13;;;2.80;99.90;;;;;;5094559;28;20488;-71
2021/12/10 08:00:10;;;;;;;30.30;12.25;;;2.80;99.90;;;;;;5094610;28;20086;-70
2021/12/10 08:02:35;;;;;;;25.15;11.23;;;2.80;99.90;;;;;;5093146;28;20079;-73
2021/12/10 08:05:01;;;;;;;25.27;11.50;;;2.80;99.90;;;;;;5094352;28;20090;-70
2021/12/10 08:07:27;;;;;;;23.40;11.73;;;2.80;99.90;;;;;;5069327;28;20048;-71
2021/12/10 08:09:53;;;;;;;25.10;12.23;;;2.90;99.90;;;;;;5076881;28;20053;-71
2021/12/10 08:12:19;;;;;;;24.73;11.20;;;2.90;99.90;;;;;;5091576;28;20067;-70
2021/12/10 08:14:46;;;;;;;25.90;11.95;;;3.70;99.90;;;;;;5077370;28;20127;-70
2021/12/10 08:17:12;;;;;;;28.60;12.68;;;3.30;99.90;;;;;;5076359;28;20181;-71
2021/12/10 08:19:38;;;;;;;21.33;10.75;;;3.00;99.90;;;;;;5075151;28;20634;-71
2021/12/10 08:22:04;;;;;;;24.38;10.73;;;3.00;99.90;;;;;;5088830;28;20044;-71
2021/12/10 08:24:30;;;;;;;23.55;10.75;;;3.10;99.90;;;;;;5088558;28;20051;-70
2021/12/10 08:26:56;;;;;;;22.48;10.77;;;3.20;99.90;;;;;;5076582;28;20044;-72
2021/12/10 08:29:25;;;;;;;20.50;10.45;;;3.30;99.90;;;;;;5093657;28;20074;-70
2021/12/10 08:31:51;;;;;;;21.90;10.32;;;3.30;99.90;;;;;;5093429;28;20044;-70
2021/12/10 08:34:17;;;;;;;23.55;10.20;;;3.30;99.90;;;;;;5093839;28;20047;-70
2021/12/10 08:36:43;;;;;;;24.10;10.98;;;3.20;99.90;;;;;;5094780;28;20393;-70
2021/12/10 08:39:10;;;;;;;24.42;10.45;;;3.30;99.90;;;;;;5075676;28;20048;-71
2021/12/10 08:41:37;;;;;;;20.55;10.15;;;3.50;99.90;;;;;;5092344;28;20384;-70
2021/12/10 08:44:04;;;;;;;22.80;10.27;;;3.60;99.90;;;;;;5076160;28;20044;-70
2021/12/10 08:46:31;;;;;;;19.77;10.38;;;3.40;99.90;;;;;;5092860;28;20225;-70
2021/12/10 08:48:59;;;;;;;19.75;9.80;;;3.80;99.90;;;;;;5092804;28;20488;-71
2021/12/10 08:51:33;;;;;;;19.30;10.27;;;3.40;99.90;;;;;;5093384;28;20550;-70
2021/12/10 08:54:00;;;;;;;21.48;10.57;;;3.60;99.90;;;;;;5092765;28;20044;-70
2021/12/10 08:56:27;;;;;;;21.75;10.20;;;3.50;99.90;;;;;;5073414;28;20400;-71
2021/12/10 08:58:53;;;;;;;21.02;10.35;;;3.50;99.90;;;;;;5075207;28;20167;-70
2021/12/10 09:01:23;;;;;;;20.05;10.00;;;3.50;99.90;;;;;;5075953;28;20471;-71
2021/12/10 09:03:52;;;;;;;24.70;11.23;;;4.20;99.90;;;;;;5091265;28;20047;-71
2021/12/10 09:06:21;;;;;;;19.85;10.70;;;3.50;99.90;;;;;;5092672;28;20040;-71
2021/12/10 09:08:47;;;;;;;19.80;10.88;;;3.70;99.90;;;;;;5075008;28;20548;-71
2021/12/10 09:11:14;;;;;;;23.05;11.15;;;3.90;99.90;;;;;;5092113;28;20131;-71
2021/12/10 09:13:41;;;;;;;22.10;10.48;;;3.60;99.90;;;;;;5090783;28;20036;-70
2021/12/10 09:16:20;;;;;;;21.73;10.77;;;3.60;99.90;;;;;;5074467;28;20036;-71
2021/12/10 09:18:46;;;;;;;20.70;10.95;;;3.60;99.90;;;;;;5074650;28;20039;-71
2021/12/10 09:21:12;;;;;;;22.35;11.32;;;3.70;99.90;;;;;;5087919;28;20098;-70
2021/12/10 09:23:38;;;;;;;23.23;10.93;;;3.90;99.90;;;;;;5091514;28;20084;-71
2021/12/10 09:26:12;;;;;;;22.05;10.23;;;3.80;99.90;;;;;;5092523;28;20090;-71
2021/12/10 09:28:40;;;;;;;20.65;10.00;;;3.90;99.90;;;;;;5100966;28;20079;-70
2021/12/10 09:31:06;;;;;;;20.23;10.70;;;3.90;99.90;;;;;;5088040;28;20070;-70
2021/12/10 09:33:32;;;;;;;23.63;10.75;;;4.20;99.90;;;;;;5091831;28;20043;-71
2021/12/10 09:35:59;;;;;;;20.10;11.13;;;4.50;99.90;;;;;;5090562;28;20103;-70
2021/12/10 09:38:25;;;;;;;20.38;10.85;;;4.20;99.90;;;;;;5091934;28;20079;-70
2021/12/10 09:40:55;;;;;;;19.60;10.32;;;4.30;99.90;;;;;;5074738;28;20048;-70
2021/12/10 09:43:22;;;;;;;18.65;10.02;;;4.80;99.90;;;;;;5085284;28;20041;-71
2021/12/10 09:45:49;;;;;;;18.67;9.52;;;4.40;99.90;;;;;;5093807;28;20404;-70
2021/12/10 09:48:18;;;;;;;16.95;9.10;;;4.50;99.90;;;;;;5092372;28;20048;-70
2021/12/10 09:50:54;;;;;;;17.40;9.10;;;4.60;99.90;;;;;;5091840;28;20504;-69
2021/12/10 09:53:20;;;;;;;18.48;9.50;;;4.70;99.90;;;;;;5090963;28;20505;-70
2021/12/10 09:55:47;;;;;;;17.20;9.25;;;4.70;99.90;;;;;;5075297;28;20039;-71
2021/12/10 09:58:14;;;;;;;17.10;9.05;;;4.80;99.90;;;;;;5092427;28;20040;-70
2021/12/10 10:00:45;;;;;;;16.85;9.20;;;4.80;99.90;;;;;;5091011;28;20097;-69
2021/12/10 10:03:13;;;;;;;18.67;9.00;;;4.90;99.90;;;;;;5086881;28;20123;-71
2021/12/10 10:05:43;;;;;;;14.20;8.52;;;4.80;99.90;;;;;;5091664;28;20051;-70
2021/12/10 10:08:13;;;;;;;15.63;8.10;;;4.80;99.90;;;;;;5086226;28;20052;-70
2021/12/10 10:10:41;;;;;;;18.25;9.13;;;4.80;99.90;;;;;;5091908;28;20389;-70
2021/12/10 10:13:10;;;;;;;15.13;8.20;;;4.70;99.90;;;;;;5090759;28;20056;-69
2021/12/10 10:15:40;;;;;;;16.70;7.70;;;4.80;99.90;;;;;;5091340;28;20398;-70
2021/12/10 10:18:09;;;;;;;16.10;7.97;;;4.80;99.90;;;;;;5074957;28;20040;-69
2021/12/10 10:20:39;;;;;;;15.88;7.90;;;4.80;99.90;;;;;;5090793;28;20062;-69
2021/12/10 10:23:07;;;;;;;17.40;8.43;;;5.20;99.90;;;;;;5091078;28;20051;-70
2021/12/10 10:25:36;;;;;;;17.52;8.13;;;4.90;99.90;;;;;;5091714;28;20044;-69
2021/12/10 10:28:04;;;;;;;13.77;8.20;;;5.10;99.90;;;;;;5091713;28;20407;-70
2021/12/10 10:30:38;;;;;;;13.85;8.10;;;5.10;99.90;;;;;;5089002;28;20799;-70
2021/12/10 10:33:07;;;;;;;15.48;7.82;;;5.10;99.90;;;;;;5090850;28;20079;-71
2021/12/10 10:35:42;;;;;;;14.82;7.82;;;5.20;99.90;;;;;;5091228;28;20048;-70
2021/12/10 10:38:10;;;;;;;14.73;8.27;;;5.20;99.90;;;;;;5091444;28;20048;-70
2021/12/10 10:40:41;;;;;;;13.45;7.47;;;5.30;99.90;;;;;;5079380;28;20082;-69
2021/12/10 10:43:08;;;;;;;15.38;7.88;;;5.30;99.90;;;;;;5090192;28;20044;-70
2021/12/10 10:45:37;;;;;;;13.32;7.95;;;5.40;99.90;;;;;;5091390;28;20055;-71
2021/12/10 10:48:05;;;;;;;15.57;8.02;;;5.10;99.90;;;;;;5091050;28;20056;-69
2021/12/10 10:50:37;;;;;;;12.73;7.68;;;5.50;99.90;;;;;;5091036;28;20557;-71
2021/12/10 10:53:12;;;;;;;15.18;7.60;;;5.70;99.90;;;;;;5089461;28;20126;-70
2021/12/10 10:55:47;;;;;;;11.65;6.88;;;5.70;99.90;;;;;;5091077;28;20105;-69
2021/12/10 10:58:16;;;;;;;15.98;7.88;;;5.80;99.90;;;;;;5090291;28;20044;-69
2021/12/10 11:01:14;;;;;;;12.88;7.53;;;6.00;99.90;;;;;;5091194;28;20040;-69
2021/12/10 11:03:51;;;;;;;12.65;7.05;;;6.00;99.90;;;;;;5070551;28;20059;-70
2021/12/10 11:06:26;;;;;;;13.32;6.78;;;6.20;99.90;;;;;;5084196;28;20496;-69
2021/12/10 11:09:06;;;;;;;13.75;7.22;;;6.30;99.90;;;;;;5088443;28;20084;-70
2021/12/10 11:11:35;;;;;;;11.25;7.07;;;6.40;99.90;;;;;;5072952;28;20513;-71
2021/12/10 11:14:15;;;;;;;13.80;6.93;;;6.50;99.90;;;;;;5081579;28;20041;-69
2021/12/10 11:16:45;;;;;;;10.18;6.70;;;6.50;99.90;;;;;;5116781;27;20165;-70
2021/12/10 11:19:18;;;;;;;13.98;8.07;;;6.60;99.90;;;;;;5104158;28;20052;-71
2021/12/10 11:21:51;;;;;;;12.88;6.65;;;6.80;99.90;;;;;;5082560;28;20051;-71
2021/12/10 11:24:24;;;;;;;14.23;6.93;;;7.00;99.90;;;;;;5089226;28;20505;-70
2021/12/10 11:26:58;;;;;;;11.38;6.63;;;7.20;99.90;;;;;;5088978;28;20325;-71
2021/12/10 11:29:30;;;;;;;10.73;6.57;;;7.50;99.90;;;;;;5090184;28;20056;-72
2021/12/10 11:32:01;;;;;;;13.55;7.05;;;7.90;99.90;;;;;;5073199;28;20059;-71
2021/12/10 11:34:44;;;;;;;10.32;6.22;;;8.30;99.90;;;;;;5073502;28;20096;-71
2021/12/10 11:37:10;;;;;;;9.85;5.90;;;8.70;99.90;;;;;;5090441;28;20059;-70
2021/12/10 11:39:47;;;;;;;9.60;5.90;;;8.70;99.90;;;;;;5073684;28;20082;-70
2021/12/10 11:42:37;;;;;;;10.77;5.63;;;9.10;99.90;;;;;;5089980;28;20048;-71
2021/12/10 11:45:16;;;;;;;10.15;5.60;;;8.90;99.90;;;;;;5075528;28;20401;-72
2021/12/10 11:47:50;;;;;;;8.65;6.10;;;9.30;99.90;;;;;;5058410;28;20517;-70
2021/12/10 11:50:21;;;;;;;11.07;6.28;;;9.70;99.90;;;;;;5090083;28;20079;-70
2021/12/10 11:53:12;;;;;;;6.97;5.20;;;9.60;99.90;;;;;;5083543;28;20098;-71
2021/12/10 11:56:01;;;;;;;9.77;5.63;;;9.80;99.90;;;;;;5073683;28;20047;-70
2021/12/10 11:58:27;;;;;;;10.60;5.97;;;10.00;99.90;;;;;;5090041;28;20040;-69
2021/12/10 12:00:54;;;;;;;12.90;5.93;;;10.10;99.90;;;;;;5090028;28;20054;-70
2021/12/10 12:03:23;;;;;;;7.20;5.10;;;10.30;99.90;;;;;;5089168;28;20063;-69
2021/12/10 12:05:50;;;;;;;7.25;4.95;;;10.10;99.90;;;;;;5090264;28;20051;-70
2021/12/10 12:08:18;;;;;;;8.68;5.85;;;10.10;99.90;;;;;;5089875;28;20086;-71
2021/12/10 12:10:58;;;;;;;7.65;5.13;;;10.10;99.90;;;;;;5090213;28;20694;-70
2021/12/10 12:13:39;;;;;;;9.00;5.53;;;10.40;99.90;;;;;;5089279;28;20135;-72
2021/12/10 12:16:15;;;;;;;9.80;5.20;;;10.30;99.90;;;;;;5089651;28;20048;-71
2021/12/10 12:18:53;;;;;;;6.97;5.05;;;10.80;99.90;;;;;;5080201;28;20419;-70
2021/12/10 12:27:15;;;;;;;9.57;6.50;;;11.40;99.90;;;;;;5093382;28;20051;-71
2021/12/10 12:29:51;;;;;;;11.20;6.10;;;11.80;99.90;;;;;;5093970;28;20048;-72
2021/12/10 12:32:48;;;;;;;10.73;6.43;;;12.00;99.90;;;;;;5075945;28;20055;-71
2021/12/10 12:35:19;;;;;;;8.32;5.90;;;12.10;99.90;;;;;;5092682;28;20060;-70
2021/12/10 12:37:45;;;;;;;8.63;5.95;;;12.20;99.90;;;;;;5093880;28;20044;-70
2021/12/10 12:40:12;;;;;;;9.70;6.53;;;12.30;99.90;;;;;;5093843;28;20127;-70
2021/12/10 12:42:45;;;;;;;10.00;6.70;;;12.40;99.90;;;;;;5093236;28;20561;-71
2021/12/10 12:45:18;;;;;;;9.25;6.07;;;12.40;99.90;;;;;;5075952;28;20052;-70
2021/12/10 12:47:53;;;;;;;9.65;6.00;;;12.40;99.90;;;;;;5076521;28;20097;-71
2021/12/10 12:50:23;;;;;;;7.88;5.80;;;12.30;99.90;;;;;;5093328;28;20052;-71
2021/12/10 12:53:00;;;;;;;9.23;6.00;;;12.20;99.90;;;;;;5092343;28;20527;-71
2021/12/10 12:55:59;;;;;;;9.23;5.90;;;11.90;99.90;;;;;;5075798;28;20481;-70
2021/12/10 12:58:29;;;;;;;8.40;5.50;;;12.10;99.90;;;;;;5091236;28;20052;-71
2021/12/10 13:01:09;;;;;;;9.32;5.53;;;12.10;99.90;;;;;;5093266;28;20068;-70
2021/12/10 13:03:40;;;;;;;7.80;5.97;;;12.20;99.90;;;;;;5092135;28;20036;-71
2021/12/10 13:06:12;;;;;;;9.52;5.93;;;12.10;99.90;;;;;;5090524;28;20040;-71
2021/12/10 13:08:42;;;;;;;8.85;5.72;;;12.10;99.90;;;;;;5091485;28;20047;-72